sensor_id;sensor_type;location;lat;lon;timestamp;temperature;humidity
3690;DHT22;1861;50.240;8.596;2024-03-22T00:00:14;11.70;99.90
3690;DHT22;1861;50.240;8.596;2024-03-22T00:02:43;11.70;99.90
3690;DHT22;1861;50.240;8.596;2024-03-22T00:05:09;11.60;99.90
3690;DHT22;1861;50.240;8.596;2024-03-22T00:07:37;11.60;99.90
3690;DHT22;1861;50.240;8.596;2024-03-22T00:10:05;11.50;99.90
3690;DHT22;1861;50.240;8.596;2024-03-22T00:12:32;11.40;99.90
3690;DHT22;1861;50.240;8.596;2024-03-22T00:14:59;11.30;99.90
3690;DHT22;1861;50.240;8.596;2024-03-22T00:17:26;11.50;99.90
3690;DHT22;1861;50.240;8.596;2024-03-22T00:19:53;11.40;99.90
3690;DHT22;1861;50.240;8.596;2024-03-22T00:22:21;11.40;99.90
3690;DHT22;1861;50.240;8.596;2024-03-22T00:24:47;11.40;99.90
3690;DHT22;1861;50.240;8.596;2024-03-22T00:27:14;11.30;99.90
3690;DHT22;1861;50.240;8.596;2024-03-22T00:29:40;11.40;99.90
3690;DHT22;1861;50.240;8.596;2024-03-22T00:32:07;11.40;99.90
3690;DHT22;1861;50.240;8.596;2024-03-22T00:34:34;11.30;99.90
3690;DHT22;1861;50.240;8.596;2024-03-22T00:37:03;11.30;99.90
3690;DHT22;1861;50.240;8.596;2024-03-22T00:39:29;11.20;99.90
3690;DHT22;1861;50.240;8.596;2024-03-22T00:41:56;11.30;99.90
3690;DHT22;1861;50.240;8.596;2024-03-22T00:44:23;11.30;99.90
3690;DHT22;1861;50.240;8.596;2024-03-22T00:46:50;11.30;99.90
3690;DHT22;1861;50.240;8.596;2024-03-22T00:49:16;11.30;99.90
3690;DHT22;1861;50.240;8.596;2024-03-22T00:51:43;11.30;99.90
3690;DHT22;1861;50.240;8.596;2024-03-22T00:54:12;11.30;99.90
3690;DHT22;1861;50.240;8.596;2024-03-22T00:56:39;11.30;99.90
3690;DHT22;1861;50.240;8.596;2024-03-22T00:59:05;11.20;99.90
3690;DHT22;1861;50.240;8.596;2024-03-22T01:01:32;11.20;99.90
3690;DHT22;1861;50.240;8.596;2024-03-22T01:03:59;11.20;99.90
3690;DHT22;1861;50.240;8.596;2024-03-22T01:06:26;11.30;99.90
3690;DHT22;1861;50.240;8.596;2024-03-22T01:08:53;11.20;99.90
3690;DHT22;1861;50.240;8.596;2024-03-22T01:11:21;11.10;99.90
3690;DHT22;1861;50.240;8.596;2024-03-22T01:13:47;11.00;99.90
3690;DHT22;1861;50.240;8.596;2024-03-22T01:16:15;11.00;99.90
3690;DHT22;1861;50.240;8.596;2024-03-22T01:18:41;11.10;99.90
3690;DHT22;1861;50.240;8.596;2024-03-22T01:21:08;11.10;99.90
3690;DHT22;1861;50.240;8.596;2024-03-22T01:23:34;11.00;99.90
3690;DHT22;1861;50.240;8.596;2024-03-22T01:26:01;11.00;99.90
3690;DHT22;1861;50.240;8.596;2024-03-22T01:28:29;10.90;99.90
3690;DHT22;1861;50.240;8.596;2024-03-22T01:30:56;10.90;99.90
3690;DHT22;1861;50.240;8.596;2024-03-22T01:33:22;11.00;99.90
3690;DHT22;1861;50.240;8.596;2024-03-22T01:35:49;11.00;99.90
3690;DHT22;1861;50.240;8.596;2024-03-22T01:38:16;11.00;99.90
3690;DHT22;1861;50.240;8.596;2024-03-22T01:40:43;11.10;99.90
3690;DHT22;1861;50.240;8.596;2024-03-22T01:43:09;11.00;99.90
3690;DHT22;1861;50.240;8.596;2024-03-22T01:45:38;10.90;99.90
3690;DHT22;1861;50.240;8.596;2024-03-22T01:48:04;10.80;99.90
3690;DHT22;1861;50.240;8.596;2024-03-22T01:50:33;10.70;99.90
3690;DHT22;1861;50.240;8.596;2024-03-22T01:53:06;10.80;99.90
3690;DHT22;1861;50.240;8.596;2024-03-22T01:55:33;10.90;99.90
3690;DHT22;1861;50.240;8.596;2024-03-22T01:57:59;10.90;99.90
3690;DHT22;1861;50.240;8.596;2024-03-22T02:00:27;10.80;99.90
3690;DHT22;1861;50.240;8.596;2024-03-22T02:02:54;10.90;99.90
3690;DHT22;1861;50.240;8.596;2024-03-22T02:05:22;10.80;99.90
3690;DHT22;1861;50.240;8.596;2024-03-22T02:07:50;10.80;99.90
3690;DHT22;1861;50.240;8.596;2024-03-22T02:10:17;10.80;99.90
3690;DHT22;1861;50.240;8.596;2024-03-22T02:12:43;10.70;99.90
3690;DHT22;1861;50.240;8.596;2024-03-22T02:15:10;10.60;99.90
3690;DHT22;1861;50.240;8.596;2024-03-22T02:17:37;10.70;99.90
3690;DHT22;1861;50.240;8.596;2024-03-22T02:20:06;10.60;99.90
3690;DHT22;1861;50.240;8.596;2024-03-22T02:22:33;10.50;99.90
3690;DHT22;1861;50.240;8.596;2024-03-22T02:25:02;10.50;99.90
3690;DHT22;1861;50.240;8.596;2024-03-22T02:27:29;10.50;99.90
3690;DHT22;1861;50.240;8.596;2024-03-22T02:29:56;10.50;99.90
3690;DHT22;1861;50.240;8.596;2024-03-22T02:32:22;10.50;99.90
3690;DHT22;1861;50.240;8.596;2024-03-22T02:34:49;10.50;99.90
3690;DHT22;1861;50.240;8.596;2024-03-22T02:37:16;10.50;99.90
3690;DHT22;1861;50.240;8.596;2024-03-22T02:39:43;10.50;99.90
3690;DHT22;1861;50.240;8.596;2024-03-22T02:42:10;10.60;99.90
3690;DHT22;1861;50.240;8.596;2024-03-22T02:44:38;10.60;99.90
3690;DHT22;1861;50.240;8.596;2024-03-22T02:47:08;10.60;99.90
3690;DHT22;1861;50.240;8.596;2024-03-22T02:49:37;10.60;99.90
3690;DHT22;1861;50.240;8.596;2024-03-22T02:52:03;10.60;99.90
3690;DHT22;1861;50.240;8.596;2024-03-22T02:54:31;10.60;99.90
3690;DHT22;1861;50.240;8.596;2024-03-22T02:56:57;10.50;99.90
3690;DHT22;1861;50.240;8.596;2024-03-22T02:59:27;10.50;99.90
3690;DHT22;1861;50.240;8.596;2024-03-22T03:01:53;10.40;99.90
3690;DHT22;1861;50.240;8.596;2024-03-22T03:04:20;10.50;99.90
3690;DHT22;1861;50.240;8.596;2024-03-22T03:06:46;10.40;99.90
3690;DHT22;1861;50.240;8.596;2024-03-22T03:09:14;10.40;99.90
3690;DHT22;1861;50.240;8.596;2024-03-22T03:11:40;10.50;99.90
3690;DHT22;1861;50.240;8.596;2024-03-22T03:14:07;10.40;99.90
3690;DHT22;1861;50.240;8.596;2024-03-22T03:16:35;10.50;99.90
3690;DHT22;1861;50.240;8.596;2024-03-22T03:19:03;10.40;99.90
3690;DHT22;1861;50.240;8.596;2024-03-22T03:21:29;10.40;99.90
3690;DHT22;1861;50.240;8.596;2024-03-22T03:23:57;10.40;99.90
3690;DHT22;1861;50.240;8.596;2024-03-22T03:26:23;10.30;99.90
3690;DHT22;1861;50.240;8.596;2024-03-22T03:28:50;10.30;99.90
3690;DHT22;1861;50.240;8.596;2024-03-22T03:31:16;10.30;99.90
3690;DHT22;1861;50.240;8.596;2024-03-22T03:33:45;10.20;99.90
3690;DHT22;1861;50.240;8.596;2024-03-22T03:36:11;10.40;99.90
3690;DHT22;1861;50.240;8.596;2024-03-22T03:38:38;10.40;99.90
3690;DHT22;1861;50.240;8.596;2024-03-22T03:41:05;10.50;99.90
3690;DHT22;1861;50.240;8.596;2024-03-22T03:43:32;10.50;99.90
3690;DHT22;1861;50.240;8.596;2024-03-22T03:45:58;10.50;99.90
3690;DHT22;1861;50.240;8.596;2024-03-22T03:48:26;10.50;99.90
3690;DHT22;1861;50.240;8.596;2024-03-22T03:50:54;10.40;99.90
3690;DHT22;1861;50.240;8.596;2024-03-22T03:53:25;10.40;99.90
3690;DHT22;1861;50.240;8.596;2024-03-22T03:55:51;10.40;99.90
3690;DHT22;1861;50.240;8.596;2024-03-22T03:58:18;10.40;99.90
3690;DHT22;1861;50.240;8.596;2024-03-22T04:00:44;10.40;99.90
3690;DHT22;1861;50.240;8.596;2024-03-22T04:03:12;10.40;99.90
3690;DHT22;1861;50.240;8.596;2024-03-22T04:05:38;10.40;99.90
3690;DHT22;1861;50.240;8.596;2024-03-22T04:08:07;10.30;99.90
3690;DHT22;1861;50.240;8.596;2024-03-22T04:10:33;10.20;99.90
3690;DHT22;1861;50.240;8.596;2024-03-22T04:13:00;10.30;99.90
3690;DHT22;1861;50.240;8.596;2024-03-22T04:15:26;10.30;99.90
3690;DHT22;1861;50.240;8.596;2024-03-22T04:17:56;10.30;99.90
3690;DHT22;1861;50.240;8.596;2024-03-22T04:20:22;10.30;99.90
3690;DHT22;1861;50.240;8.596;2024-03-22T04:22:49;10.30;99.90
3690;DHT22;1861;50.240;8.596;2024-03-22T04:25:19;10.30;99.90
3690;DHT22;1861;50.240;8.596;2024-03-22T04:27:46;10.30;99.90
3690;DHT22;1861;50.240;8.596;2024-03-22T04:30:13;10.30;99.90
3690;DHT22;1861;50.240;8.596;2024-03-22T04:32:40;10.30;99.90
3690;DHT22;1861;50.240;8.596;2024-03-22T04:35:07;10.30;99.90
3690;DHT22;1861;50.240;8.596;2024-03-22T04:37:34;10.40;99.90
3690;DHT22;1861;50.240;8.596;2024-03-22T04:40:01;10.30;99.90
3690;DHT22;1861;50.240;8.596;2024-03-22T04:42:30;10.30;99.90
3690;DHT22;1861;50.240;8.596;2024-03-22T04:44:56;10.30;99.90
3690;DHT22;1861;50.240;8.596;2024-03-22T04:47:24;10.30;99.90
3690;DHT22;1861;50.240;8.596;2024-03-22T04:49:51;10.30;99.90
3690;DHT22;1861;50.240;8.596;2024-03-22T04:52:18;10.20;99.90
3690;DHT22;1861;50.240;8.596;2024-03-22T04:54:45;10.20;99.90
3690;DHT22;1861;50.240;8.596;2024-03-22T04:57:13;10.30;99.90
3690;DHT22;1861;50.240;8.596;2024-03-22T04:59:41;10.30;99.90
3690;DHT22;1861;50.240;8.596;2024-03-22T05:02:08;10.30;99.90
3690;DHT22;1861;50.240;8.596;2024-03-22T05:04:35;10.30;99.90
3690;DHT22;1861;50.240;8.596;2024-03-22T05:07:02;10.30;99.90
3690;DHT22;1861;50.240;8.596;2024-03-22T05:09:29;10.40;99.90
3690;DHT22;1861;50.240;8.596;2024-03-22T05:11:58;10.40;99.90
3690;DHT22;1861;50.240;8.596;2024-03-22T05:14:25;10.30;99.90
3690;DHT22;1861;50.240;8.596;2024-03-22T05:16:52;10.30;99.90
3690;DHT22;1861;50.240;8.596;2024-03-22T05:19:20;10.40;99.90
3690;DHT22;1861;50.240;8.596;2024-03-22T05:21:46;10.40;99.90
3690;DHT22;1861;50.240;8.596;2024-03-22T05:24:14;10.40;99.90
3690;DHT22;1861;50.240;8.596;2024-03-22T05:26:40;10.30;99.90
3690;DHT22;1861;50.240;8.596;2024-03-22T05:29:07;10.30;99.90
3690;DHT22;1861;50.240;8.596;2024-03-22T05:31:45;10.40;99.90
3690;DHT22;1861;50.240;8.596;2024-03-22T05:34:14;10.30;99.90
3690;DHT22;1861;50.240;8.596;2024-03-22T05:36:41;10.40;99.90
3690;DHT22;1861;50.240;8.596;2024-03-22T05:39:08;10.40;99.90
3690;DHT22;1861;50.240;8.596;2024-03-22T05:41:35;10.50;99.90
3690;DHT22;1861;50.240;8.596;2024-03-22T05:44:02;10.40;99.90
3690;DHT22;1861;50.240;8.596;2024-03-22T05:46:29;10.40;99.90
3690;DHT22;1861;50.240;8.596;2024-03-22T05:48:57;10.40;99.90
3690;DHT22;1861;50.240;8.596;2024-03-22T05:51:25;10.50;99.90
3690;DHT22;1861;50.240;8.596;2024-03-22T05:53:52;10.50;99.90
3690;DHT22;1861;50.240;8.596;2024-03-22T05:56:18;10.50;99.90
3690;DHT22;1861;50.240;8.596;2024-03-22T05:58:45;10.50;99.90
3690;DHT22;1861;50.240;8.596;2024-03-22T06:01:12;10.50;99.90
3690;DHT22;1861;50.240;8.596;2024-03-22T06:03:39;10.50;99.90
3690;DHT22;1861;50.240;8.596;2024-03-22T06:06:06;10.50;99.90
3690;DHT22;1861;50.240;8.596;2024-03-22T06:08:35;10.60;99.90
3690;DHT22;1861;50.240;8.596;2024-03-22T06:11:07;10.60;99.90
3690;DHT22;1861;50.240;8.596;2024-03-22T06:13:34;10.70;99.90
3690;DHT22;1861;50.240;8.596;2024-03-22T06:16:01;10.70;99.90
3690;DHT22;1861;50.240;8.596;2024-03-22T06:18:28;10.70;99.90
3690;DHT22;1861;50.240;8.596;2024-03-22T06:20:54;10.70;99.90
3690;DHT22;1861;50.240;8.596;2024-03-22T06:23:21;10.70;99.90
3690;DHT22;1861;50.240;8.596;2024-03-22T06:25:52;10.70;99.90
3690;DHT22;1861;50.240;8.596;2024-03-22T06:28:20;10.70;99.90
3690;DHT22;1861;50.240;8.596;2024-03-22T06:30:46;10.70;99.90
3690;DHT22;1861;50.240;8.596;2024-03-22T06:33:13;10.70;99.90
3690;DHT22;1861;50.240;8.596;2024-03-22T06:35:41;10.70;99.90
3690;DHT22;1861;50.240;8.596;2024-03-22T06:38:08;10.80;99.90
3690;DHT22;1861;50.240;8.596;2024-03-22T06:40:35;10.80;99.90
3690;DHT22;1861;50.240;8.596;2024-03-22T06:43:03;10.70;99.90
3690;DHT22;1861;50.240;8.596;2024-03-22T06:45:30;10.80;99.90
3690;DHT22;1861;50.240;8.596;2024-03-22T06:47:57;10.80;99.90
3690;DHT22;1861;50.240;8.596;2024-03-22T06:50:23;10.80;99.90
3690;DHT22;1861;50.240;8.596;2024-03-22T06:52:53;10.80;99.90
3690;DHT22;1861;50.240;8.596;2024-03-22T06:55:20;10.90;99.90
3690;DHT22;1861;50.240;8.596;2024-03-22T06:57:48;10.90;99.90
3690;DHT22;1861;50.240;8.596;2024-03-22T07:00:16;10.90;99.90
3690;DHT22;1861;50.240;8.596;2024-03-22T07:02:45;10.90;99.90
3690;DHT22;1861;50.240;8.596;2024-03-22T07:05:11;10.90;99.90
3690;DHT22;1861;50.240;8.596;2024-03-22T07:07:39;10.90;99.90
3690;DHT22;1861;50.240;8.596;2024-03-22T07:10:05;11.00;99.90
3690;DHT22;1861;50.240;8.596;2024-03-22T07:12:33;11.00;99.90
3690;DHT22;1861;50.240;8.596;2024-03-22T07:14:59;11.00;99.90
3690;DHT22;1861;50.240;8.596;2024-03-22T07:17:30;11.00;99.90
3690;DHT22;1861;50.240;8.596;2024-03-22T07:19:56;11.00;99.90
3690;DHT22;1861;50.240;8.596;2024-03-22T07:22:23;11.10;99.90
3690;DHT22;1861;50.240;8.596;2024-03-22T07:24:50;11.10;99.90
3690;DHT22;1861;50.240;8.596;2024-03-22T07:27:18;11.10;99.90
3690;DHT22;1861;50.240;8.596;2024-03-22T07:29:44;11.20;99.90
3690;DHT22;1861;50.240;8.596;2024-03-22T07:32:12;11.20;99.90
3690;DHT22;1861;50.240;8.596;2024-03-22T07:34:39;11.20;99.90
3690;DHT22;1861;50.240;8.596;2024-03-22T07:37:07;11.20;99.90
3690;DHT22;1861;50.240;8.596;2024-03-22T07:39:33;11.20;99.90
3690;DHT22;1861;50.240;8.596;2024-03-22T07:42:01;11.30;99.90
3690;DHT22;1861;50.240;8.596;2024-03-22T07:44:28;11.30;99.90
3690;DHT22;1861;50.240;8.596;2024-03-22T07:46:56;11.30;99.90
3690;DHT22;1861;50.240;8.596;2024-03-22T07:49:22;11.30;99.90
3690;DHT22;1861;50.240;8.596;2024-03-22T07:51:51;11.30;99.90
3690;DHT22;1861;50.240;8.596;2024-03-22T07:54:19;11.30;99.90
3690;DHT22;1861;50.240;8.596;2024-03-22T07:56:47;11.30;99.90
3690;DHT22;1861;50.240;8.596;2024-03-22T07:59:13;11.40;99.90
3690;DHT22;1861;50.240;8.596;2024-03-22T08:01:41;11.40;99.90
3690;DHT22;1861;50.240;8.596;2024-03-22T08:04:07;11.40;99.90
3690;DHT22;1861;50.240;8.596;2024-03-22T08:06:34;11.40;99.90
3690;DHT22;1861;50.240;8.596;2024-03-22T08:09:02;11.40;99.90
3690;DHT22;1861;50.240;8.596;2024-03-22T08:11:29;11.50;99.90
3690;DHT22;1861;50.240;8.596;2024-03-22T08:13:56;11.60;99.90
3690;DHT22;1861;50.240;8.596;2024-03-22T08:16:28;11.60;99.90
3690;DHT22;1861;50.240;8.596;2024-03-22T08:18:54;11.60;99.90
3690;DHT22;1861;50.240;8.596;2024-03-22T08:21:22;11.60;99.90
3690;DHT22;1861;50.240;8.596;2024-03-22T08:23:49;11.60;99.90
3690;DHT22;1861;50.240;8.596;2024-03-22T08:26:18;11.70;99.90
3690;DHT22;1861;50.240;8.596;2024-03-22T08:28:45;11.60;99.90
3690;DHT22;1861;50.240;8.596;2024-03-22T08:31:12;11.70;99.90
3690;DHT22;1861;50.240;8.596;2024-03-22T08:33:39;11.70;99.90
3690;DHT22;1861;50.240;8.596;2024-03-22T08:36:07;11.80;99.90
3690;DHT22;1861;50.240;8.596;2024-03-22T08:38:33;11.70;99.90
3690;DHT22;1861;50.240;8.596;2024-03-22T08:41:00;11.80;99.90
3690;DHT22;1861;50.240;8.596;2024-03-22T08:43:28;11.80;99.90
3690;DHT22;1861;50.240;8.596;2024-03-22T08:45:55;11.80;99.90
3690;DHT22;1861;50.240;8.596;2024-03-22T08:48:22;11.80;99.90
3690;DHT22;1861;50.240;8.596;2024-03-22T08:50:49;11.90;99.90
3690;DHT22;1861;50.240;8.596;2024-03-22T08:53:15;11.80;99.90
3690;DHT22;1861;50.240;8.596;2024-03-22T08:55:46;11.80;99.90
3690;DHT22;1861;50.240;8.596;2024-03-22T08:58:13;11.80;99.90
3690;DHT22;1861;50.240;8.596;2024-03-22T09:00:42;11.80;99.90
3690;DHT22;1861;50.240;8.596;2024-03-22T09:03:08;11.90;99.90
3690;DHT22;1861;50.240;8.596;2024-03-22T09:05:36;11.90;99.90
3690;DHT22;1861;50.240;8.596;2024-03-22T09:08:03;11.90;99.90
3690;DHT22;1861;50.240;8.596;2024-03-22T09:10:30;12.00;99.90
3690;DHT22;1861;50.240;8.596;2024-03-22T09:12:57;12.00;99.90
3690;DHT22;1861;50.240;8.596;2024-03-22T09:15:24;12.00;99.90
3690;DHT22;1861;50.240;8.596;2024-03-22T09:17:53;12.00;99.90
3690;DHT22;1861;50.240;8.596;2024-03-22T09:20:20;12.00;99.90
3690;DHT22;1861;50.240;8.596;2024-03-22T09:22:46;12.10;99.90
3690;DHT22;1861;50.240;8.596;2024-03-22T09:25:14;12.10;99.90
3690;DHT22;1861;50.240;8.596;2024-03-22T09:27:40;12.10;99.90
3690;DHT22;1861;50.240;8.596;2024-03-22T09:30:08;12.10;99.90
3690;DHT22;1861;50.240;8.596;2024-03-22T09:32:35;12.10;99.90
3690;DHT22;1861;50.240;8.596;2024-03-22T09:35:05;12.20;99.90
3690;DHT22;1861;50.240;8.596;2024-03-22T09:37:31;12.20;99.90
3690;DHT22;1861;50.240;8.596;2024-03-22T09:39:58;12.30;99.90
3690;DHT22;1861;50.240;8.596;2024-03-22T09:42:25;12.30;99.90
3690;DHT22;1861;50.240;8.596;2024-03-22T09:44:54;12.40;99.90
3690;DHT22;1861;50.240;8.596;2024-03-22T09:47:21;12.40;99.90
3690;DHT22;1861;50.240;8.596;2024-03-22T09:49:48;12.40;99.90
3690;DHT22;1861;50.240;8.596;2024-03-22T09:52:18;12.50;99.90
3690;DHT22;1861;50.240;8.596;2024-03-22T09:54:46;12.50;99.90
3690;DHT22;1861;50.240;8.596;2024-03-22T09:57:14;12.60;99.90
3690;DHT22;1861;50.240;8.596;2024-03-22T09:59:42;12.70;99.90
3690;DHT22;1861;50.240;8.596;2024-03-22T10:02:11;12.80;99.90
3690;DHT22;1861;50.240;8.596;2024-03-22T10:04:38;12.80;99.90
3690;DHT22;1861;50.240;8.596;2024-03-22T10:07:04;12.90;99.90
3690;DHT22;1861;50.240;8.596;2024-03-22T10:09:33;12.90;99.90
3690;DHT22;1861;50.240;8.596;2024-03-22T10:12:00;12.90;99.90
3690;DHT22;1861;50.240;8.596;2024-03-22T10:14:27;12.90;99.90
3690;DHT22;1861;50.240;8.596;2024-03-22T10:16:53;12.90;99.90
3690;DHT22;1861;50.240;8.596;2024-03-22T10:19:21;12.90;99.90
3690;DHT22;1861;50.240;8.596;2024-03-22T10:21:48;12.90;99.90
3690;DHT22;1861;50.240;8.596;2024-03-22T10:24:15;13.00;99.90
3690;DHT22;1861;50.240;8.596;2024-03-22T10:26:43;13.00;99.90
3690;DHT22;1861;50.240;8.596;2024-03-22T10:29:11;13.00;99.90
3690;DHT22;1861;50.240;8.596;2024-03-22T10:31:38;13.00;99.90
3690;DHT22;1861;50.240;8.596;2024-03-22T10:34:08;13.00;99.90
3690;DHT22;1861;50.240;8.596;2024-03-22T10:36:35;13.10;99.90
3690;DHT22;1861;50.240;8.596;2024-03-22T10:39:03;13.10;99.90
3690;DHT22;1861;50.240;8.596;2024-03-22T10:41:30;13.10;99.90
3690;DHT22;1861;50.240;8.596;2024-03-22T10:43:59;13.10;99.90
3690;DHT22;1861;50.240;8.596;2024-03-22T10:46:29;13.10;99.90
3690;DHT22;1861;50.240;8.596;2024-03-22T10:48:57;13.10;99.90
3690;DHT22;1861;50.240;8.596;2024-03-22T10:51:24;13.10;99.90
3690;DHT22;1861;50.240;8.596;2024-03-22T10:53:53;13.20;99.90
3690;DHT22;1861;50.240;8.596;2024-03-22T10:56:22;13.10;99.90
3690;DHT22;1861;50.240;8.596;2024-03-22T10:58:49;13.10;99.90
3690;DHT22;1861;50.240;8.596;2024-03-22T11:01:26;13.20;99.90
3690;DHT22;1861;50.240;8.596;2024-03-22T11:04:03;13.20;99.90
3690;DHT22;1861;50.240;8.596;2024-03-22T11:06:31;13.20;99.90
3690;DHT22;1861;50.240;8.596;2024-03-22T11:08:59;13.20;99.90
3690;DHT22;1861;50.240;8.596;2024-03-22T11:11:28;13.30;99.90
3690;DHT22;1861;50.240;8.596;2024-03-22T11:13:55;13.30;99.90
3690;DHT22;1861;50.240;8.596;2024-03-22T11:16:24;13.30;99.90
3690;DHT22;1861;50.240;8.596;2024-03-22T11:18:50;13.30;99.90
3690;DHT22;1861;50.240;8.596;2024-03-22T11:21:18;13.30;99.90
3690;DHT22;1861;50.240;8.596;2024-03-22T11:23:47;13.30;99.90
3690;DHT22;1861;50.240;8.596;2024-03-22T11:26:15;13.30;99.90
3690;DHT22;1861;50.240;8.596;2024-03-22T11:28:42;13.30;99.90
3690;DHT22;1861;50.240;8.596;2024-03-22T11:31:09;13.30;99.90
3690;DHT22;1861;50.240;8.596;2024-03-22T11:33:37;13.40;99.90
3690;DHT22;1861;50.240;8.596;2024-03-22T11:36:04;13.40;99.90
3690;DHT22;1861;50.240;8.596;2024-03-22T11:38:31;13.40;99.90
3690;DHT22;1861;50.240;8.596;2024-03-22T11:40:59;13.40;99.90
3690;DHT22;1861;50.240;8.596;2024-03-22T11:43:27;13.40;99.90
3690;DHT22;1861;50.240;8.596;2024-03-22T11:45:56;13.40;99.90
3690;DHT22;1861;50.240;8.596;2024-03-22T11:48:23;13.40;99.90
3690;DHT22;1861;50.240;8.596;2024-03-22T11:50:52;13.50;99.90
3690;DHT22;1861;50.240;8.596;2024-03-22T11:53:18;13.50;99.90
3690;DHT22;1861;50.240;8.596;2024-03-22T11:55:45;13.60;99.90
3690;DHT22;1861;50.240;8.596;2024-03-22T11:58:12;13.50;99.90
3690;DHT22;1861;50.240;8.596;2024-03-22T12:00:39;13.50;99.90
3690;DHT22;1861;50.240;8.596;2024-03-22T12:03:06;13.60;99.90
3690;DHT22;1861;50.240;8.596;2024-03-22T12:05:33;13.50;99.90
3690;DHT22;1861;50.240;8.596;2024-03-22T12:08:01;13.60;99.90
3690;DHT22;1861;50.240;8.596;2024-03-22T12:10:28;13.70;99.90
3690;DHT22;1861;50.240;8.596;2024-03-22T12:12:54;13.70;99.90
3690;DHT22;1861;50.240;8.596;2024-03-22T12:15:23;13.70;99.90
3690;DHT22;1861;50.240;8.596;2024-03-22T12:17:49;13.70;99.90
3690;DHT22;1861;50.240;8.596;2024-03-22T12:20:16;13.70;99.90
3690;DHT22;1861;50.240;8.596;2024-03-22T12:22:43;13.70;99.90
3690;DHT22;1861;50.240;8.596;2024-03-22T12:25:13;13.70;99.90
3690;DHT22;1861;50.240;8.596;2024-03-22T12:27:40;13.70;99.90
3690;DHT22;1861;50.240;8.596;2024-03-22T12:30:08;13.70;99.90
3690;DHT22;1861;50.240;8.596;2024-03-22T12:32:35;13.60;99.90
3690;DHT22;1861;50.240;8.596;2024-03-22T12:35:03;13.60;99.90
3690;DHT22;1861;50.240;8.596;2024-03-22T12:37:30;13.60;99.90
3690;DHT22;1861;50.240;8.596;2024-03-22T12:39:58;13.60;99.90
3690;DHT22;1861;50.240;8.596;2024-03-22T12:42:25;13.60;99.90
3690;DHT22;1861;50.240;8.596;2024-03-22T12:44:52;13.60;99.90
3690;DHT22;1861;50.240;8.596;2024-03-22T12:47:19;13.60;99.90
3690;DHT22;1861;50.240;8.596;2024-03-22T12:49:46;13.60;99.90
3690;DHT22;1861;50.240;8.596;2024-03-22T12:52:12;13.70;99.90
3690;DHT22;1861;50.240;8.596;2024-03-22T12:54:40;13.60;99.90
3690;DHT22;1861;50.240;8.596;2024-03-22T12:57:06;13.60;99.90
3690;DHT22;1861;50.240;8.596;2024-03-22T12:59:35;13.60;99.90
3690;DHT22;1861;50.240;8.596;2024-03-22T13:02:01;13.60;99.90
3690;DHT22;1861;50.240;8.596;2024-03-22T13:04:30;13.60;99.90
3690;DHT22;1861;50.240;8.596;2024-03-22T13:06:57;13.60;99.90
3690;DHT22;1861;50.240;8.596;2024-03-22T13:09:24;13.60;99.90
3690;DHT22;1861;50.240;8.596;2024-03-22T13:11:50;13.60;99.90
3690;DHT22;1861;50.240;8.596;2024-03-22T13:14:18;13.60;99.90
3690;DHT22;1861;50.240;8.596;2024-03-22T13:16:46;13.60;99.90
3690;DHT22;1861;50.240;8.596;2024-03-22T13:19:14;13.60;99.90
3690;DHT22;1861;50.240;8.596;2024-03-22T13:21:41;13.60;99.90
3690;DHT22;1861;50.240;8.596;2024-03-22T13:24:10;13.70;99.90
3690;DHT22;1861;50.240;8.596;2024-03-22T13:26:36;13.60;99.90
3690;DHT22;1861;50.240;8.596;2024-03-22T13:29:04;13.60;99.90
3690;DHT22;1861;50.240;8.596;2024-03-22T13:31:30;13.60;99.90
3690;DHT22;1861;50.240;8.596;2024-03-22T13:33:59;13.60;99.90
3690;DHT22;1861;50.240;8.596;2024-03-22T13:36:25;13.60;99.90
3690;DHT22;1861;50.240;8.596;2024-03-22T13:38:52;13.60;99.90
3690;DHT22;1861;50.240;8.596;2024-03-22T13:41:19;13.60;99.90
3690;DHT22;1861;50.240;8.596;2024-03-22T13:43:46;13.60;99.90
3690;DHT22;1861;50.240;8.596;2024-03-22T13:46:12;13.60;99.90
3690;DHT22;1861;50.240;8.596;2024-03-22T13:48:43;13.60;99.90
3690;DHT22;1861;50.240;8.596;2024-03-22T13:51:11;13.60;99.90
3690;DHT22;1861;50.240;8.596;2024-03-22T13:53:38;13.60;99.90
3690;DHT22;1861;50.240;8.596;2024-03-22T13:56:05;13.60;99.90
3690;DHT22;1861;50.240;8.596;2024-03-22T13:58:33;13.60;99.90
3690;DHT22;1861;50.240;8.596;2024-03-22T14:01:00;13.60;99.90
3690;DHT22;1861;50.240;8.596;2024-03-22T14:03:27;13.60;99.90
3690;DHT22;1861;50.240;8.596;2024-03-22T14:05:53;13.60;99.90
3690;DHT22;1861;50.240;8.596;2024-03-22T14:08:22;13.60;99.90
3690;DHT22;1861;50.240;8.596;2024-03-22T14:10:48;13.60;99.90
3690;DHT22;1861;50.240;8.596;2024-03-22T14:13:16;13.60;99.90
3690;DHT22;1861;50.240;8.596;2024-03-22T14:15:42;13.60;99.90
3690;DHT22;1861;50.240;8.596;2024-03-22T14:18:09;13.60;99.90
3690;DHT22;1861;50.240;8.596;2024-03-22T14:20:36;13.60;99.90
3690;DHT22;1861;50.240;8.596;2024-03-22T14:23:03;13.60;99.90
3690;DHT22;1861;50.240;8.596;2024-03-22T14:25:31;13.60;99.90
3690;DHT22;1861;50.240;8.596;2024-03-22T14:28:01;13.60;99.90
3690;DHT22;1861;50.240;8.596;2024-03-22T14:30:28;13.60;99.90
3690;DHT22;1861;50.240;8.596;2024-03-22T14:32:55;13.60;99.90
3690;DHT22;1861;50.240;8.596;2024-03-22T14:35:21;13.60;99.90
3690;DHT22;1861;50.240;8.596;2024-03-22T14:37:48;13.60;99.90
3690;DHT22;1861;50.240;8.596;2024-03-22T14:40:15;13.60;99.90
3690;DHT22;1861;50.240;8.596;2024-03-22T14:42:44;13.60;99.90
3690;DHT22;1861;50.240;8.596;2024-03-22T14:45:10;13.60;99.90
3690;DHT22;1861;50.240;8.596;2024-03-22T14:47:38;13.60;99.90
3690;DHT22;1861;50.240;8.596;2024-03-22T14:50:06;13.60;99.90
3690;DHT22;1861;50.240;8.596;2024-03-22T14:52:33;13.60;99.90
3690;DHT22;1861;50.240;8.596;2024-03-22T14:54:59;13.60;99.90
3690;DHT22;1861;50.240;8.596;2024-03-22T14:57:27;13.60;99.90
3690;DHT22;1861;50.240;8.596;2024-03-22T14:59:54;13.60;99.90
3690;DHT22;1861;50.240;8.596;2024-03-22T15:02:22;13.60;99.90
3690;DHT22;1861;50.240;8.596;2024-03-22T15:04:48;13.60;99.90
3690;DHT22;1861;50.240;8.596;2024-03-22T15:07:15;13.60;99.90
3690;DHT22;1861;50.240;8.596;2024-03-22T15:09:42;13.60;99.90
3690;DHT22;1861;50.240;8.596;2024-03-22T15:12:09;13.70;99.90
3690;DHT22;1861;50.240;8.596;2024-03-22T15:14:35;13.70;99.90
3690;DHT22;1861;50.240;8.596;2024-03-22T15:17:04;13.70;99.90
3690;DHT22;1861;50.240;8.596;2024-03-22T15:19:31;13.70;99.90
3690;DHT22;1861;50.240;8.596;2024-03-22T15:21:58;13.70;99.90
3690;DHT22;1861;50.240;8.596;2024-03-22T15:24:24;13.60;99.90
3690;DHT22;1861;50.240;8.596;2024-03-22T15:26:51;13.70;99.90
3690;DHT22;1861;50.240;8.596;2024-03-22T15:29:18;13.70;99.90
3690;DHT22;1861;50.240;8.596;2024-03-22T15:31:45;13.70;99.90
3690;DHT22;1861;50.240;8.596;2024-03-22T15:34:12;13.70;99.90
3690;DHT22;1861;50.240;8.596;2024-03-22T15:36:40;13.70;99.90
3690;DHT22;1861;50.240;8.596;2024-03-22T15:39:06;13.70;99.90
3690;DHT22;1861;50.240;8.596;2024-03-22T15:41:33;13.70;99.90
3690;DHT22;1861;50.240;8.596;2024-03-22T15:44:00;13.70;99.90
3690;DHT22;1861;50.240;8.596;2024-03-22T15:46:27;13.70;99.90
3690;DHT22;1861;50.240;8.596;2024-03-22T15:48:53;13.70;99.90
3690;DHT22;1861;50.240;8.596;2024-03-22T15:51:22;13.70;99.90
3690;DHT22;1861;50.240;8.596;2024-03-22T15:53:49;13.70;99.90
3690;DHT22;1861;50.240;8.596;2024-03-22T15:56:16;13.70;99.90
3690;DHT22;1861;50.240;8.596;2024-03-22T15:58:43;13.70;99.90
3690;DHT22;1861;50.240;8.596;2024-03-22T16:01:10;13.80;99.90